sensor_id;sensor_type;location;lat;lon;timestamp;P1;durP1;ratioP1;P2;durP2;ratioP2
12005;SDS011;6062;47.294;12.182;2023-03-23T00:01:31;9.68;;;7.15;;
12005;SDS011;6062;47.294;12.182;2023-03-23T00:04:02;9.98;;;7.03;;
12005;SDS011;6062;47.294;12.182;2023-03-23T00:06:28;9.75;;;7.60;;
12005;SDS011;6062;47.294;12.182;2023-03-23T00:08:58;8.35;;;7.05;;
12005;SDS011;6062;47.294;12.182;2023-03-23T00:11:27;9.90;;;7.45;;
12005;SDS011;6062;47.294;12.182;2023-03-23T00:13:57;8.10;;;6.85;;
12005;SDS011;6062;47.294;12.182;2023-03-23T00:16:26;10.45;;;8.00;;
12005;SDS011;6062;47.294;12.182;2023-03-23T00:19:00;11.32;;;7.80;;
12005;SDS011;6062;47.294;12.182;2023-03-23T00:21:30;9.52;;;7.25;;
12005;SDS011;6062;47.294;12.182;2023-03-23T00:24:00;10.13;;;7.82;;
12005;SDS011;6062;47.294;12.182;2023-03-23T00:26:31;10.18;;;7.38;;
12005;SDS011;6062;47.294;12.182;2023-03-23T00:28:59;10.90;;;8.60;;
12005;SDS011;6062;47.294;12.182;2023-03-23T00:31:27;11.85;;;8.30;;
12005;SDS011;6062;47.294;12.182;2023-03-23T00:33:58;11.07;;;8.23;;
12005;SDS011;6062;47.294;12.182;2023-03-23T00:36:28;10.23;;;8.35;;
12005;SDS011;6062;47.294;12.182;2023-03-23T00:39:00;12.82;;;8.88;;
12005;SDS011;6062;47.294;12.182;2023-03-23T00:41:28;10.32;;;7.82;;
12005;SDS011;6062;47.294;12.182;2023-03-23T00:43:56;12.18;;;8.70;;
12005;SDS011;6062;47.294;12.182;2023-03-23T00:46:25;10.27;;;7.78;;
12005;SDS011;6062;47.294;12.182;2023-03-23T00:48:52;11.68;;;8.05;;
12005;SDS011;6062;47.294;12.182;2023-03-23T00:51:19;11.43;;;8.43;;
12005;SDS011;6062;47.294;12.182;2023-03-23T00:53:46;10.77;;;8.35;;
12005;SDS011;6062;47.294;12.182;2023-03-23T00:56:12;10.50;;;7.95;;
12005;SDS011;6062;47.294;12.182;2023-03-23T00:58:38;11.65;;;8.63;;
12005;SDS011;6062;47.294;12.182;2023-03-23T01:01:05;11.52;;;8.32;;
12005;SDS011;6062;47.294;12.182;2023-03-23T01:03:31;11.70;;;8.10;;
12005;SDS011;6062;47.294;12.182;2023-03-23T01:06:03;10.13;;;7.45;;
12005;SDS011;6062;47.294;12.182;2023-03-23T01:08:37;10.20;;;7.22;;
12005;SDS011;6062;47.294;12.182;2023-03-23T01:11:10;10.85;;;8.20;;
12005;SDS011;6062;47.294;12.182;2023-03-23T01:13:39;10.98;;;8.52;;
12005;SDS011;6062;47.294;12.182;2023-03-23T01:16:07;11.48;;;8.73;;
12005;SDS011;6062;47.294;12.182;2023-03-23T01:18:34;10.32;;;7.95;;
12005;SDS011;6062;47.294;12.182;2023-03-23T01:21:04;11.52;;;8.32;;
12005;SDS011;6062;47.294;12.182;2023-03-23T01:23:37;10.57;;;8.18;;
12005;SDS011;6062;47.294;12.182;2023-03-23T01:26:08;11.15;;;7.60;;
12005;SDS011;6062;47.294;12.182;2023-03-23T01:28:46;11.68;;;8.38;;
12005;SDS011;6062;47.294;12.182;2023-03-23T01:31:14;11.60;;;9.13;;
12005;SDS011;6062;47.294;12.182;2023-03-23T01:33:46;12.65;;;8.55;;
12005;SDS011;6062;47.294;12.182;2023-03-23T01:36:16;11.30;;;8.35;;
12005;SDS011;6062;47.294;12.182;2023-03-23T01:38:47;12.68;;;9.00;;
12005;SDS011;6062;47.294;12.182;2023-03-23T01:41:15;11.80;;;8.60;;
12005;SDS011;6062;47.294;12.182;2023-03-23T01:46:30;11.93;;;8.85;;
12005;SDS011;6062;47.294;12.182;2023-03-23T01:49:00;11.15;;;8.63;;
12005;SDS011;6062;47.294;12.182;2023-03-23T01:51:34;11.95;;;8.80;;
12005;SDS011;6062;47.294;12.182;2023-03-23T01:54:08;11.07;;;8.82;;
12005;SDS011;6062;47.294;12.182;2023-03-23T01:56:46;11.05;;;8.20;;
12005;SDS011;6062;47.294;12.182;2023-03-23T01:59:20;13.57;;;9.70;;
12005;SDS011;6062;47.294;12.182;2023-03-23T02:01:47;11.38;;;8.73;;
12005;SDS011;6062;47.294;12.182;2023-03-23T02:04:17;11.38;;;8.48;;
12005;SDS011;6062;47.294;12.182;2023-03-23T02:06:44;11.27;;;8.23;;
12005;SDS011;6062;47.294;12.182;2023-03-23T02:09:11;11.10;;;8.60;;
12005;SDS011;6062;47.294;12.182;2023-03-23T02:11:39;10.40;;;8.00;;
12005;SDS011;6062;47.294;12.182;2023-03-23T02:14:05;10.32;;;8.43;;
12005;SDS011;6062;47.294;12.182;2023-03-23T02:37:03;11.82;;;8.43;;
12005;SDS011;6062;47.294;12.182;2023-03-23T02:39:48;9.30;;;7.70;;
12005;SDS011;6062;47.294;12.182;2023-03-23T02:42:23;10.63;;;7.88;;
12005;SDS011;6062;47.294;12.182;2023-03-23T02:44:56;10.45;;;7.30;;
12005;SDS011;6062;47.294;12.182;2023-03-23T02:47:29;11.52;;;8.65;;
12005;SDS011;6062;47.294;12.182;2023-03-23T02:49:57;13.25;;;8.48;;
12005;SDS011;6062;47.294;12.182;2023-03-23T02:52:26;11.40;;;8.38;;
12005;SDS011;6062;47.294;12.182;2023-03-23T02:54:56;11.65;;;8.48;;
12005;SDS011;6062;47.294;12.182;2023-03-23T02:57:24;12.30;;;8.40;;
12005;SDS011;6062;47.294;12.182;2023-03-23T02:59:51;9.63;;;7.55;;
12005;SDS011;6062;47.294;12.182;2023-03-23T03:02:27;8.85;;;7.22;;
12005;SDS011;6062;47.294;12.182;2023-03-23T03:11:11;10.80;;;7.68;;
12005;SDS011;6062;47.294;12.182;2023-03-23T03:19:18;12.13;;;8.52;;
12005;SDS011;6062;47.294;12.182;2023-03-23T03:21:51;12.00;;;8.35;;
12005;SDS011;6062;47.294;12.182;2023-03-23T03:24:22;13.02;;;7.93;;
12005;SDS011;6062;47.294;12.182;2023-03-23T03:26:52;11.20;;;8.30;;
12005;SDS011;6062;47.294;12.182;2023-03-23T03:29:25;9.57;;;7.10;;
12005;SDS011;6062;47.294;12.182;2023-03-23T03:31:57;10.82;;;7.78;;
12005;SDS011;6062;47.294;12.182;2023-03-23T03:34:26;11.18;;;7.45;;
12005;SDS011;6062;47.294;12.182;2023-03-23T03:36:53;10.40;;;7.45;;
12005;SDS011;6062;47.294;12.182;2023-03-23T03:39:23;10.70;;;7.13;;
12005;SDS011;6062;47.294;12.182;2023-03-23T03:41:50;10.30;;;8.25;;
12005;SDS011;6062;47.294;12.182;2023-03-23T03:44:16;9.00;;;7.47;;
12005;SDS011;6062;47.294;12.182;2023-03-23T03:46:42;11.18;;;8.75;;
12005;SDS011;6062;47.294;12.182;2023-03-23T03:49:09;10.20;;;7.93;;
12005;SDS011;6062;47.294;12.182;2023-03-23T03:51:37;10.40;;;8.13;;
12005;SDS011;6062;47.294;12.182;2023-03-23T03:54:05;11.20;;;8.55;;
12005;SDS011;6062;47.294;12.182;2023-03-23T03:56:31;10.77;;;6.95;;
12005;SDS011;6062;47.294;12.182;2023-03-23T03:59:01;8.70;;;6.72;;
12005;SDS011;6062;47.294;12.182;2023-03-23T04:01:27;8.45;;;6.13;;
12005;SDS011;6062;47.294;12.182;2023-03-23T04:03:54;6.53;;;5.32;;
12005;SDS011;6062;47.294;12.182;2023-03-23T04:06:21;8.15;;;5.93;;
12005;SDS011;6062;47.294;12.182;2023-03-23T04:08:47;7.93;;;5.70;;
12005;SDS011;6062;47.294;12.182;2023-03-23T04:11:13;6.43;;;5.40;;
12005;SDS011;6062;47.294;12.182;2023-03-23T04:13:40;8.27;;;5.90;;
12005;SDS011;6062;47.294;12.182;2023-03-23T04:16:06;8.13;;;5.65;;
12005;SDS011;6062;47.294;12.182;2023-03-23T04:18:33;6.70;;;5.55;;
12005;SDS011;6062;47.294;12.182;2023-03-23T04:21:00;6.82;;;5.57;;
12005;SDS011;6062;47.294;12.182;2023-03-23T04:23:28;8.80;;;5.95;;
12005;SDS011;6062;47.294;12.182;2023-03-23T04:25:58;6.40;;;5.45;;
12005;SDS011;6062;47.294;12.182;2023-03-23T04:28:25;5.75;;;4.70;;
12005;SDS011;6062;47.294;12.182;2023-03-23T04:30:52;8.35;;;5.68;;
12005;SDS011;6062;47.294;12.182;2023-03-23T04:33:19;8.05;;;5.40;;
12005;SDS011;6062;47.294;12.182;2023-03-23T04:35:51;8.38;;;5.28;;
12005;SDS011;6062;47.294;12.182;2023-03-23T04:38:19;6.97;;;5.15;;
12005;SDS011;6062;47.294;12.182;2023-03-23T04:40:50;6.93;;;5.22;;
12005;SDS011;6062;47.294;12.182;2023-03-23T04:43:18;6.85;;;5.18;;
12005;SDS011;6062;47.294;12.182;2023-03-23T04:45:51;6.88;;;4.75;;
12005;SDS011;6062;47.294;12.182;2023-03-23T04:48:25;7.45;;;6.25;;
12005;SDS011;6062;47.294;12.182;2023-03-23T04:50:54;7.93;;;5.90;;
12005;SDS011;6062;47.294;12.182;2023-03-23T04:53:20;8.18;;;6.20;;
12005;SDS011;6062;47.294;12.182;2023-03-23T04:55:47;7.95;;;5.72;;
12005;SDS011;6062;47.294;12.182;2023-03-23T04:58:14;7.33;;;5.40;;
12005;SDS011;6062;47.294;12.182;2023-03-23T05:00:41;6.93;;;5.23;;
12005;SDS011;6062;47.294;12.182;2023-03-23T05:03:09;7.03;;;5.30;;
12005;SDS011;6062;47.294;12.182;2023-03-23T05:05:36;7.72;;;5.18;;
12005;SDS011;6062;47.294;12.182;2023-03-23T05:08:02;6.00;;;4.70;;
12005;SDS011;6062;47.294;12.182;2023-03-23T05:10:28;5.53;;;4.67;;
12005;SDS011;6062;47.294;12.182;2023-03-23T05:12:54;6.85;;;5.20;;
12005;SDS011;6062;47.294;12.182;2023-03-23T05:15:20;6.30;;;5.05;;
12005;SDS011;6062;47.294;12.182;2023-03-23T05:17:46;5.85;;;4.70;;
12005;SDS011;6062;47.294;12.182;2023-03-23T05:20:14;5.93;;;4.85;;
12005;SDS011;6062;47.294;12.182;2023-03-23T05:22:45;7.97;;;5.20;;
12005;SDS011;6062;47.294;12.182;2023-03-23T05:25:15;6.30;;;5.15;;
12005;SDS011;6062;47.294;12.182;2023-03-23T05:27:47;5.63;;;4.97;;
12005;SDS011;6062;47.294;12.182;2023-03-23T05:30:17;6.50;;;5.03;;
12005;SDS011;6062;47.294;12.182;2023-03-23T05:32:45;7.53;;;5.20;;
12005;SDS011;6062;47.294;12.182;2023-03-23T05:35:15;9.65;;;5.70;;
12005;SDS011;6062;47.294;12.182;2023-03-23T05:37:44;8.45;;;5.72;;
12005;SDS011;6062;47.294;12.182;2023-03-23T05:40:10;7.32;;;5.45;;
12005;SDS011;6062;47.294;12.182;2023-03-23T05:42:37;7.43;;;5.50;;
12005;SDS011;6062;47.294;12.182;2023-03-23T05:45:08;6.60;;;5.53;;
12005;SDS011;6062;47.294;12.182;2023-03-23T05:47:35;7.35;;;5.40;;
12005;SDS011;6062;47.294;12.182;2023-03-23T05:50:02;7.38;;;5.90;;
12005;SDS011;6062;47.294;12.182;2023-03-23T05:52:30;7.43;;;5.90;;
12005;SDS011;6062;47.294;12.182;2023-03-23T05:54:57;7.40;;;5.72;;
12005;SDS011;6062;47.294;12.182;2023-03-23T05:57:23;7.13;;;5.40;;
12005;SDS011;6062;47.294;12.182;2023-03-23T05:59:49;6.60;;;5.32;;
12005;SDS011;6062;47.294;12.182;2023-03-23T06:02:15;8.15;;;6.20;;
12005;SDS011;6062;47.294;12.182;2023-03-23T06:04:41;8.50;;;6.63;;
12005;SDS011;6062;47.294;12.182;2023-03-23T06:07:08;10.50;;;7.47;;
12005;SDS011;6062;47.294;12.182;2023-03-23T06:09:39;10.85;;;8.00;;
12005;SDS011;6062;47.294;12.182;2023-03-23T06:12:06;12.77;;;8.88;;
12005;SDS011;6062;47.294;12.182;2023-03-23T06:14:34;11.68;;;8.63;;
12005;SDS011;6062;47.294;12.182;2023-03-23T06:17:01;11.15;;;8.60;;
12005;SDS011;6062;47.294;12.182;2023-03-23T06:19:28;14.60;;;9.57;;
12005;SDS011;6062;47.294;12.182;2023-03-23T06:21:54;11.75;;;8.60;;
12005;SDS011;6062;47.294;12.182;2023-03-23T06:24:20;12.13;;;8.95;;
12005;SDS011;6062;47.294;12.182;2023-03-23T06:26:46;12.23;;;9.38;;
12005;SDS011;6062;47.294;12.182;2023-03-23T06:29:12;13.25;;;9.45;;
12005;SDS011;6062;47.294;12.182;2023-03-23T06:31:45;10.73;;;8.45;;
12005;SDS011;6062;47.294;12.182;2023-03-23T06:34:14;11.10;;;8.40;;
12005;SDS011;6062;47.294;12.182;2023-03-23T06:36:40;10.93;;;7.95;;
12005;SDS011;6062;47.294;12.182;2023-03-23T06:39:08;9.75;;;7.38;;
12005;SDS011;6062;47.294;12.182;2023-03-23T06:41:34;11.07;;;8.45;;
12005;SDS011;6062;47.294;12.182;2023-03-23T06:44:00;11.50;;;8.35;;
12005;SDS011;6062;47.294;12.182;2023-03-23T06:46:26;10.57;;;8.48;;
12005;SDS011;6062;47.294;12.182;2023-03-23T06:48:53;8.30;;;6.75;;
12005;SDS011;6062;47.294;12.182;2023-03-23T06:51:19;8.55;;;7.20;;
12005;SDS011;6062;47.294;12.182;2023-03-23T06:53:46;8.90;;;6.53;;
12005;SDS011;6062;47.294;12.182;2023-03-23T06:56:12;8.55;;;7.60;;
12005;SDS011;6062;47.294;12.182;2023-03-23T06:58:38;9.20;;;7.15;;
12005;SDS011;6062;47.294;12.182;2023-03-23T07:01:06;7.88;;;6.68;;
12005;SDS011;6062;47.294;12.182;2023-03-23T07:03:34;9.05;;;7.47;;
12005;SDS011;6062;47.294;12.182;2023-03-23T07:06:00;7.95;;;7.05;;
12005;SDS011;6062;47.294;12.182;2023-03-23T07:08:26;9.02;;;7.00;;
12005;SDS011;6062;47.294;12.182;2023-03-23T07:10:53;8.65;;;7.00;;
12005;SDS011;6062;47.294;12.182;2023-03-23T07:13:20;8.15;;;7.07;;
12005;SDS011;6062;47.294;12.182;2023-03-23T07:15:46;8.77;;;6.53;;
12005;SDS011;6062;47.294;12.182;2023-03-23T07:18:13;7.82;;;6.88;;
12005;SDS011;6062;47.294;12.182;2023-03-23T07:20:39;7.53;;;6.68;;
12005;SDS011;6062;47.294;12.182;2023-03-23T07:23:05;7.18;;;6.47;;
12005;SDS011;6062;47.294;12.182;2023-03-23T07:25:32;6.78;;;6.05;;
12005;SDS011;6062;47.294;12.182;2023-03-23T07:27:59;10.38;;;5.53;;
12005;SDS011;6062;47.294;12.182;2023-03-23T07:30:26;6.03;;;5.30;;
12005;SDS011;6062;47.294;12.182;2023-03-23T07:32:54;5.82;;;5.22;;
12005;SDS011;6062;47.294;12.182;2023-03-23T07:35:20;6.72;;;6.03;;
12005;SDS011;6062;47.294;12.182;2023-03-23T07:37:46;6.30;;;5.68;;
12005;SDS011;6062;47.294;12.182;2023-03-23T07:40:15;7.63;;;5.55;;
12005;SDS011;6062;47.294;12.182;2023-03-23T07:42:45;6.47;;;5.78;;
12005;SDS011;6062;47.294;12.182;2023-03-23T07:45:17;6.60;;;5.88;;
12005;SDS011;6062;47.294;12.182;2023-03-23T07:47:43;7.05;;;5.57;;
12005;SDS011;6062;47.294;12.182;2023-03-23T07:50:09;8.13;;;5.65;;
12005;SDS011;6062;47.294;12.182;2023-03-23T07:52:37;9.52;;;6.43;;
12005;SDS011;6062;47.294;12.182;2023-03-23T07:55:04;6.18;;;5.18;;
12005;SDS011;6062;47.294;12.182;2023-03-23T07:57:33;6.45;;;4.60;;
12005;SDS011;6062;47.294;12.182;2023-03-23T08:00:00;5.90;;;4.97;;
12005;SDS011;6062;47.294;12.182;2023-03-23T08:02:28;5.95;;;5.30;;
12005;SDS011;6062;47.294;12.182;2023-03-23T08:04:56;7.28;;;5.60;;
12005;SDS011;6062;47.294;12.182;2023-03-23T08:07:25;5.80;;;5.20;;
12005;SDS011;6062;47.294;12.182;2023-03-23T08:09:51;5.63;;;5.10;;
12005;SDS011;6062;47.294;12.182;2023-03-23T08:12:17;5.38;;;4.68;;
12005;SDS011;6062;47.294;12.182;2023-03-23T08:14:43;6.65;;;5.13;;
12005;SDS011;6062;47.294;12.182;2023-03-23T08:17:08;6.93;;;5.68;;
12005;SDS011;6062;47.294;12.182;2023-03-23T08:19:35;7.07;;;5.18;;
12005;SDS011;6062;47.294;12.182;2023-03-23T08:22:04;6.15;;;5.53;;
12005;SDS011;6062;47.294;12.182;2023-03-23T08:24:31;6.63;;;5.78;;
12005;SDS011;6062;47.294;12.182;2023-03-23T08:26:58;5.75;;;5.15;;
12005;SDS011;6062;47.294;12.182;2023-03-23T08:29:25;5.72;;;5.13;;
12005;SDS011;6062;47.294;12.182;2023-03-23T08:31:51;9.23;;;6.85;;
12005;SDS011;6062;47.294;12.182;2023-03-23T08:34:17;7.80;;;6.63;;
12005;SDS011;6062;47.294;12.182;2023-03-23T08:36:43;7.95;;;6.03;;
12005;SDS011;6062;47.294;12.182;2023-03-23T08:39:11;6.15;;;5.55;;
12005;SDS011;6062;47.294;12.182;2023-03-23T08:41:39;8.30;;;6.20;;
12005;SDS011;6062;47.294;12.182;2023-03-23T08:44:06;6.13;;;5.35;;
12005;SDS011;6062;47.294;12.182;2023-03-23T08:46:33;6.43;;;5.60;;
12005;SDS011;6062;47.294;12.182;2023-03-23T08:48:59;5.45;;;4.93;;
12005;SDS011;6062;47.294;12.182;2023-03-23T08:51:25;5.68;;;5.07;;
12005;SDS011;6062;47.294;12.182;2023-03-23T08:53:51;5.97;;;5.20;;
12005;SDS011;6062;47.294;12.182;2023-03-23T08:56:17;6.65;;;5.00;;
12005;SDS011;6062;47.294;12.182;2023-03-23T08:58:43;6.10;;;5.05;;
12005;SDS011;6062;47.294;12.182;2023-03-23T09:01:09;5.85;;;5.35;;
12005;SDS011;6062;47.294;12.182;2023-03-23T09:03:36;6.72;;;5.85;;
12005;SDS011;6062;47.294;12.182;2023-03-23T09:06:03;6.18;;;5.35;;
12005;SDS011;6062;47.294;12.182;2023-03-23T09:08:32;6.00;;;5.40;;
12005;SDS011;6062;47.294;12.182;2023-03-23T09:11:04;5.20;;;4.70;;
12005;SDS011;6062;47.294;12.182;2023-03-23T09:13:34;5.30;;;4.63;;
12005;SDS011;6062;47.294;12.182;2023-03-23T09:16:01;4.80;;;4.40;;
12005;SDS011;6062;47.294;12.182;2023-03-23T09:18:29;4.90;;;4.40;;
12005;SDS011;6062;47.294;12.182;2023-03-23T09:20:57;5.30;;;4.80;;
12005;SDS011;6062;47.294;12.182;2023-03-23T09:23:24;5.00;;;4.50;;
12005;SDS011;6062;47.294;12.182;2023-03-23T09:25:50;6.97;;;4.10;;
12005;SDS011;6062;47.294;12.182;2023-03-23T09:28:17;4.47;;;4.07;;
12005;SDS011;6062;47.294;12.182;2023-03-23T09:30:43;5.72;;;4.90;;
12005;SDS011;6062;47.294;12.182;2023-03-23T09:33:10;6.32;;;4.82;;
12005;SDS011;6062;47.294;12.182;2023-03-23T09:35:37;5.03;;;4.57;;
12005;SDS011;6062;47.294;12.182;2023-03-23T09:38:04;5.70;;;4.55;;
12005;SDS011;6062;47.294;12.182;2023-03-23T09:40:35;5.22;;;4.53;;
12005;SDS011;6062;47.294;12.182;2023-03-23T09:46:30;5.07;;;4.43;;
12005;SDS011;6062;47.294;12.182;2023-03-23T09:49:09;5.15;;;4.35;;
12005;SDS011;6062;47.294;12.182;2023-03-23T09:54:29;4.43;;;4.03;;
12005;SDS011;6062;47.294;12.182;2023-03-23T09:57:01;5.07;;;4.65;;
12005;SDS011;6062;47.294;12.182;2023-03-23T10:02:14;5.22;;;4.38;;
12005;SDS011;6062;47.294;12.182;2023-03-23T10:04:45;4.63;;;4.00;;
12005;SDS011;6062;47.294;12.182;2023-03-23T10:09:54;4.65;;;4.20;;
12005;SDS011;6062;47.294;12.182;2023-03-23T10:15:28;4.75;;;4.20;;
12005;SDS011;6062;47.294;12.182;2023-03-23T10:18:12;5.00;;;4.50;;
12005;SDS011;6062;47.294;12.182;2023-03-23T10:26:33;6.78;;;4.50;;
12005;SDS011;6062;47.294;12.182;2023-03-23T10:32:00;4.40;;;3.97;;
12005;SDS011;6062;47.294;12.182;2023-03-23T10:35:02;5.00;;;4.32;;
12005;SDS011;6062;47.294;12.182;2023-03-23T10:37:37;4.40;;;4.00;;
12005;SDS011;6062;47.294;12.182;2023-03-23T10:40:14;4.45;;;4.05;;
12005;SDS011;6062;47.294;12.182;2023-03-23T10:42:44;4.40;;;4.00;;
12005;SDS011;6062;47.294;12.182;2023-03-23T10:45:32;5.43;;;4.93;;
12005;SDS011;6062;47.294;12.182;2023-03-23T10:50:41;5.32;;;4.50;;
12005;SDS011;6062;47.294;12.182;2023-03-23T10:53:16;5.20;;;4.45;;
12005;SDS011;6062;47.294;12.182;2023-03-23T10:55:53;4.78;;;4.32;;
12005;SDS011;6062;47.294;12.182;2023-03-23T10:58:38;4.47;;;4.07;;
12005;SDS011;6062;47.294;12.182;2023-03-23T11:01:04;5.38;;;4.43;;
12005;SDS011;6062;47.294;12.182;2023-03-23T11:06:06;5.03;;;4.53;;
12005;SDS011;6062;47.294;12.182;2023-03-23T11:08:36;6.05;;;4.75;;
12005;SDS011;6062;47.294;12.182;2023-03-23T11:11:24;4.35;;;3.95;;
12005;SDS011;6062;47.294;12.182;2023-03-23T11:16:57;4.47;;;4.07;;
12005;SDS011;6062;47.294;12.182;2023-03-23T11:19:32;4.78;;;4.35;;
12005;SDS011;6062;47.294;12.182;2023-03-23T11:22:12;5.38;;;4.22;;
12005;SDS011;6062;47.294;12.182;2023-03-23T11:24:46;5.00;;;4.50;;
12005;SDS011;6062;47.294;12.182;2023-03-23T11:27:18;5.60;;;4.72;;
12005;SDS011;6062;47.294;12.182;2023-03-23T11:29:50;4.90;;;4.35;;
12005;SDS011;6062;47.294;12.182;2023-03-23T11:32:43;5.47;;;4.57;;
12005;SDS011;6062;47.294;12.182;2023-03-23T11:35:15;4.97;;;4.47;;
12005;SDS011;6062;47.294;12.182;2023-03-23T11:37:52;5.00;;;4.50;;
12005;SDS011;6062;47.294;12.182;2023-03-23T11:40:25;4.28;;;3.83;;
12005;SDS011;6062;47.294;12.182;2023-03-23T11:42:58;4.57;;;4.13;;
12005;SDS011;6062;47.294;12.182;2023-03-23T11:45:39;5.60;;;4.57;;
12005;SDS011;6062;47.294;12.182;2023-03-23T11:51:16;5.63;;;4.45;;
12005;SDS011;6062;47.294;12.182;2023-03-23T11:56:51;4.13;;;3.72;;
12005;SDS011;6062;47.294;12.182;2023-03-23T11:59:29;5.75;;;4.07;;
12005;SDS011;6062;47.294;12.182;2023-03-23T12:02:18;4.75;;;4.07;;
12005;SDS011;6062;47.294;12.182;2023-03-23T12:05:30;4.30;;;3.88;;
12005;SDS011;6062;47.294;12.182;2023-03-23T12:08:03;3.75;;;3.40;;
12005;SDS011;6062;47.294;12.182;2023-03-23T12:11:03;4.25;;;3.65;;
12005;SDS011;6062;47.294;12.182;2023-03-23T12:13:54;7.82;;;3.80;;
12005;SDS011;6062;47.294;12.182;2023-03-23T12:43:24;3.78;;;3.40;;
12005;SDS011;6062;47.294;12.182;2023-03-23T12:49:06;3.45;;;3.15;;
12005;SDS011;6062;47.294;12.182;2023-03-23T12:54:36;4.43;;;3.25;;
12005;SDS011;6062;47.294;12.182;2023-03-23T12:57:16;3.88;;;3.30;;
12005;SDS011;6062;47.294;12.182;2023-03-23T13:02:43;3.30;;;2.92;;
12005;SDS011;6062;47.294;12.182;2023-03-23T13:10:47;3.20;;;2.20;;
12005;SDS011;6062;47.294;12.182;2023-03-23T13:13:18;2.60;;;2.33;;
12005;SDS011;6062;47.294;12.182;2023-03-23T13:16:02;2.95;;;2.25;;
12005;SDS011;6062;47.294;12.182;2023-03-23T13:18:57;3.35;;;2.20;;
12005;SDS011;6062;47.294;12.182;2023-03-23T13:21:34;2.20;;;2.00;;
12005;SDS011;6062;47.294;12.182;2023-03-23T13:24:10;2.50;;;2.30;;
12005;SDS011;6062;47.294;12.182;2023-03-23T13:26:42;2.45;;;2.10;;
12005;SDS011;6062;47.294;12.182;2023-03-23T13:29:12;2.20;;;1.85;;
12005;SDS011;6062;47.294;12.182;2023-03-23T13:31:43;2.70;;;2.10;;
12005;SDS011;6062;47.294;12.182;2023-03-23T13:34:18;2.40;;;2.13;;
12005;SDS011;6062;47.294;12.182;2023-03-23T13:37:01;2.15;;;1.95;;
12005;SDS011;6062;47.294;12.182;2023-03-23T13:39:37;2.30;;;2.10;;
12005;SDS011;6062;47.294;12.182;2023-03-23T13:42:21;2.78;;;2.30;;
12005;SDS011;6062;47.294;12.182;2023-03-23T13:45:05;2.20;;;1.90;;
12005;SDS011;6062;47.294;12.182;2023-03-23T13:47:46;2.03;;;1.70;;
12005;SDS011;6062;47.294;12.182;2023-03-23T13:50:25;2.63;;;1.90;;
12005;SDS011;6062;47.294;12.182;2023-03-23T13:52:57;2.58;;;2.20;;
12005;SDS011;6062;47.294;12.182;2023-03-23T13:58:29;3.35;;;2.60;;
12005;SDS011;6062;47.294;12.182;2023-03-23T14:01:11;4.05;;;2.50;;
12005;SDS011;6062;47.294;12.182;2023-03-23T14:03:45;2.50;;;2.25;;
12005;SDS011;6062;47.294;12.182;2023-03-23T14:06:21;5.15;;;3.03;;
12005;SDS011;6062;47.294;12.182;2023-03-23T14:08:50;3.25;;;2.95;;
12005;SDS011;6062;47.294;12.182;2023-03-23T14:11:23;3.53;;;3.03;;
12005;SDS011;6062;47.294;12.182;2023-03-23T14:16:37;3.92;;;3.50;;
12005;SDS011;6062;47.294;12.182;2023-03-23T14:19:14;4.15;;;3.75;;
12005;SDS011;6062;47.294;12.182;2023-03-23T14:21:48;5.25;;;3.47;;
12005;SDS011;6062;47.294;12.182;2023-03-23T14:24:21;6.40;;;4.20;;
12005;SDS011;6062;47.294;12.182;2023-03-23T14:26:51;4.53;;;3.40;;
12005;SDS011;6062;47.294;12.182;2023-03-23T14:29:26;3.60;;;3.30;;
12005;SDS011;6062;47.294;12.182;2023-03-23T14:31:53;4.68;;;3.30;;
12005;SDS011;6062;47.294;12.182;2023-03-23T14:34:24;3.80;;;3.40;;
12005;SDS011;6062;47.294;12.182;2023-03-23T14:36:54;3.90;;;3.42;;
12005;SDS011;6062;47.294;12.182;2023-03-23T14:39:26;4.03;;;3.63;;
12005;SDS011;6062;47.294;12.182;2023-03-23T14:41:56;5.10;;;4.20;;
12005;SDS011;6062;47.294;12.182;2023-03-23T14:44:31;4.32;;;3.80;;
12005;SDS011;6062;47.294;12.182;2023-03-23T14:47:03;4.13;;;3.60;;
12005;SDS011;6062;47.294;12.182;2023-03-23T14:49:38;4.10;;;3.70;;
12005;SDS011;6062;47.294;12.182;2023-03-23T14:52:12;3.83;;;3.45;;
12005;SDS011;6062;47.294;12.182;2023-03-23T14:54:43;4.22;;;3.40;;
12005;SDS011;6062;47.294;12.182;2023-03-23T14:57:28;4.43;;;3.45;;
12005;SDS011;6062;47.294;12.182;2023-03-23T14:59:55;5.10;;;3.45;;
12005;SDS011;6062;47.294;12.182;2023-03-23T15:02:26;4.13;;;3.40;;
12005;SDS011;6062;47.294;12.182;2023-03-23T15:05:06;3.80;;;3.20;;
12005;SDS011;6062;47.294;12.182;2023-03-23T15:07:52;4.35;;;3.78;;
12005;SDS011;6062;47.294;12.182;2023-03-23T15:10:25;3.90;;;3.47;;
12005;SDS011;6062;47.294;12.182;2023-03-23T15:12:51;4.90;;;3.95;;
12005;SDS011;6062;47.294;12.182;2023-03-23T15:15:27;4.40;;;3.70;;
12005;SDS011;6062;47.294;12.182;2023-03-23T15:17:56;4.53;;;3.53;;
12005;SDS011;6062;47.294;12.182;2023-03-23T15:20:29;3.95;;;3.50;;
12005;SDS011;6062;47.294;12.182;2023-03-23T15:23:07;3.47;;;3.17;;
12005;SDS011;6062;47.294;12.182;2023-03-23T15:25:39;4.95;;;3.30;;
12005;SDS011;6062;47.294;12.182;2023-03-23T15:28:22;4.05;;;3.42;;
12005;SDS011;6062;47.294;12.182;2023-03-23T15:30:57;4.60;;;3.40;;
12005;SDS011;6062;47.294;12.182;2023-03-23T15:33:35;3.92;;;3.17;;
12005;SDS011;6062;47.294;12.182;2023-03-23T15:36:36;3.97;;;3.58;;
12005;SDS011;6062;47.294;12.182;2023-03-23T15:38:57;5.28;;;3.75;;
12005;SDS011;6062;47.294;12.182;2023-03-23T15:41:24;3.80;;;3.40;;
12005;SDS011;6062;47.294;12.182;2023-03-23T15:43:57;4.10;;;3.70;;
12005;SDS011;6062;47.294;12.182;2023-03-23T15:46:35;5.35;;;3.63;;
12005;SDS011;6062;47.294;12.182;2023-03-23T15:51:27;4.07;;;3.63;;
12005;SDS011;6062;47.294;12.182;2023-03-23T15:53:56;4.28;;;3.63;;
12005;SDS011;6062;47.294;12.182;2023-03-23T15:56:22;4.55;;;3.45;;
12005;SDS011;6062;47.294;12.182;2023-03-23T15:58:50;4.20;;;3.72;;
12005;SDS011;6062;47.294;12.182;2023-03-23T16:01:20;5.55;;;3.63;;
12005;SDS011;6062;47.294;12.182;2023-03-23T16:03:55;5.75;;;3.83;;
12005;SDS011;6062;47.294;12.182;2023-03-23T16:06:26;5.93;;;3.58;;
12005;SDS011;6062;47.294;12.182;2023-03-23T16:08:56;4.10;;;3.53;;
12005;SDS011;6062;47.294;12.182;2023-03-23T16:11:24;5.18;;;3.85;;
12005;SDS011;6062;47.294;12.182;2023-03-23T16:13:55;4.50;;;3.80;;
12005;SDS011;6062;47.294;12.182;2023-03-23T16:16:30;4.32;;;3.90;;
12005;SDS011;6062;47.294;12.182;2023-03-23T16:19:03;4.30;;;3.83;;
12005;SDS011;6062;47.294;12.182;2023-03-23T16:21:30;3.85;;;3.25;;
12005;SDS011;6062;47.294;12.182;2023-03-23T16:23:56;3.78;;;3.33;;
12005;SDS011;6062;47.294;12.182;2023-03-23T16:26:22;3.95;;;3.28;;
12005;SDS011;6062;47.294;12.182;2023-03-23T16:28:48;4.15;;;3.45;;
12005;SDS011;6062;47.294;12.182;2023-03-23T16:31:14;4.47;;;3.55;;
12005;SDS011;6062;47.294;12.182;2023-03-23T16:33:40;4.68;;;3.33;;
12005;SDS011;6062;47.294;12.182;2023-03-23T16:36:06;5.45;;;3.92;;
12005;SDS011;6062;47.294;12.182;2023-03-23T16:38:35;4.88;;;3.95;;
12005;SDS011;6062;47.294;12.182;2023-03-23T16:41:01;4.15;;;3.75;;
12005;SDS011;6062;47.294;12.182;2023-03-23T16:43:27;4.75;;;3.65;;
12005;SDS011;6062;47.294;12.182;2023-03-23T16:45:54;4.38;;;3.78;;
12005;SDS011;6062;47.294;12.182;2023-03-23T16:48:21;3.75;;;3.30;;
12005;SDS011;6062;47.294;12.182;2023-03-23T16:50:48;4.43;;;3.60;;
12005;SDS011;6062;47.294;12.182;2023-03-23T16:53:15;4.25;;;3.85;;
12005;SDS011;6062;47.294;12.182;2023-03-23T16:55:41;4.60;;;3.90;;
12005;SDS011;6062;47.294;12.182;2023-03-23T16:58:11;4.93;;;3.90;;
12005;SDS011;6062;47.294;12.182;2023-03-23T17:00:39;4.75;;;4.03;;
12005;SDS011;6062;47.294;12.182;2023-03-23T17:03:06;7.13;;;4.20;;
12005;SDS011;6062;47.294;12.182;2023-03-23T17:05:33;4.68;;;4.18;;
12005;SDS011;6062;47.294;12.182;2023-03-23T17:08:01;4.68;;;4.13;;